sensor_id;sensor_type;location;lat;lon;timestamp;P1;durP1;ratioP1;P2;durP2;ratioP2
27740;SDS011;15134;48.768;9.184;2023-06-24T00:02:05;9.40;;;4.05;;
27740;SDS011;15134;48.768;9.184;2023-06-24T00:04:31;6.23;;;3.87;;
27740;SDS011;15134;48.768;9.184;2023-06-24T00:06:57;6.53;;;3.70;;
27740;SDS011;15134;48.768;9.184;2023-06-24T00:09:25;7.38;;;4.82;;
27740;SDS011;15134;48.768;9.184;2023-06-24T00:11:55;7.47;;;4.38;;
27740;SDS011;15134;48.768;9.184;2023-06-24T00:14:22;7.20;;;4.25;;
27740;SDS011;15134;48.768;9.184;2023-06-24T00:16:49;5.82;;;3.30;;
27740;SDS011;15134;48.768;9.184;2023-06-24T00:19:19;6.22;;;3.83;;
27740;SDS011;15134;48.768;9.184;2023-06-24T00:21:49;6.55;;;4.15;;
27740;SDS011;15134;48.768;9.184;2023-06-24T00:24:21;6.60;;;3.83;;
27740;SDS011;15134;48.768;9.184;2023-06-24T00:26:53;8.02;;;4.63;;
27740;SDS011;15134;48.768;9.184;2023-06-24T00:29:19;11.93;;;6.32;;
27740;SDS011;15134;48.768;9.184;2023-06-24T00:31:45;7.63;;;4.22;;
27740;SDS011;15134;48.768;9.184;2023-06-24T00:34:12;10.52;;;5.43;;
27740;SDS011;15134;48.768;9.184;2023-06-24T00:36:37;6.20;;;4.07;;
27740;SDS011;15134;48.768;9.184;2023-06-24T00:39:06;6.03;;;3.88;;
27740;SDS011;15134;48.768;9.184;2023-06-24T00:41:33;9.52;;;4.65;;
27740;SDS011;15134;48.768;9.184;2023-06-24T00:46:25;8.57;;;4.22;;
27740;SDS011;15134;48.768;9.184;2023-06-24T00:48:56;7.13;;;4.03;;
27740;SDS011;15134;48.768;9.184;2023-06-24T00:51:24;7.53;;;4.35;;
27740;SDS011;15134;48.768;9.184;2023-06-24T00:53:55;8.13;;;4.32;;
27740;SDS011;15134;48.768;9.184;2023-06-24T00:56:31;8.65;;;4.60;;
27740;SDS011;15134;48.768;9.184;2023-06-24T00:58:59;5.85;;;3.88;;
27740;SDS011;15134;48.768;9.184;2023-06-24T01:01:28;6.55;;;4.22;;
27740;SDS011;15134;48.768;9.184;2023-06-24T01:03:58;9.30;;;4.60;;
27740;SDS011;15134;48.768;9.184;2023-06-24T01:06:26;7.05;;;4.50;;
27740;SDS011;15134;48.768;9.184;2023-06-24T01:08:56;8.73;;;4.25;;
27740;SDS011;15134;48.768;9.184;2023-06-24T01:11:23;7.13;;;4.05;;
27740;SDS011;15134;48.768;9.184;2023-06-24T01:13:49;6.88;;;4.43;;
27740;SDS011;15134;48.768;9.184;2023-06-24T01:16:20;7.13;;;4.38;;
27740;SDS011;15134;48.768;9.184;2023-06-24T01:19:00;7.90;;;4.53;;
27740;SDS011;15134;48.768;9.184;2023-06-24T01:21:48;9.82;;;5.68;;
27740;SDS011;15134;48.768;9.184;2023-06-24T01:33:01;9.25;;;5.93;;
27740;SDS011;15134;48.768;9.184;2023-06-24T01:35:31;7.70;;;5.03;;
27740;SDS011;15134;48.768;9.184;2023-06-24T01:38:03;7.75;;;5.50;;
27740;SDS011;15134;48.768;9.184;2023-06-24T01:40:43;9.20;;;5.53;;
27740;SDS011;15134;48.768;9.184;2023-06-24T01:43:12;10.27;;;5.20;;
27740;SDS011;15134;48.768;9.184;2023-06-24T01:45:44;7.15;;;4.80;;
27740;SDS011;15134;48.768;9.184;2023-06-24T01:48:14;7.78;;;5.15;;
27740;SDS011;15134;48.768;9.184;2023-06-24T01:50:47;7.95;;;5.07;;
27740;SDS011;15134;48.768;9.184;2023-06-24T01:53:17;9.23;;;5.47;;
27740;SDS011;15134;48.768;9.184;2023-06-24T01:55:45;8.25;;;5.07;;
27740;SDS011;15134;48.768;9.184;2023-06-24T01:58:14;7.47;;;4.88;;
27740;SDS011;15134;48.768;9.184;2023-06-24T02:00:44;10.77;;;4.95;;
27740;SDS011;15134;48.768;9.184;2023-06-24T02:03:11;8.32;;;4.95;;
27740;SDS011;15134;48.768;9.184;2023-06-24T02:05:38;6.18;;;4.40;;
27740;SDS011;15134;48.768;9.184;2023-06-24T02:08:07;7.57;;;5.22;;
27740;SDS011;15134;48.768;9.184;2023-06-24T02:10:34;13.27;;;5.15;;
27740;SDS011;15134;48.768;9.184;2023-06-24T02:13:03;10.27;;;5.28;;
27740;SDS011;15134;48.768;9.184;2023-06-24T02:15:30;7.95;;;5.10;;
27740;SDS011;15134;48.768;9.184;2023-06-24T02:17:58;8.63;;;4.82;;
27740;SDS011;15134;48.768;9.184;2023-06-24T02:20:27;7.15;;;4.30;;
27740;SDS011;15134;48.768;9.184;2023-06-24T02:22:55;8.60;;;5.32;;
27740;SDS011;15134;48.768;9.184;2023-06-24T02:25:23;7.82;;;5.05;;
27740;SDS011;15134;48.768;9.184;2023-06-24T02:27:50;8.20;;;5.18;;
27740;SDS011;15134;48.768;9.184;2023-06-24T02:30:16;11.55;;;5.40;;
27740;SDS011;15134;48.768;9.184;2023-06-24T02:32:44;8.13;;;5.10;;
27740;SDS011;15134;48.768;9.184;2023-06-24T02:35:09;8.43;;;5.27;;
27740;SDS011;15134;48.768;9.184;2023-06-24T02:37:35;8.57;;;5.30;;
27740;SDS011;15134;48.768;9.184;2023-06-24T02:40:01;8.77;;;5.67;;
27740;SDS011;15134;48.768;9.184;2023-06-24T02:42:29;7.88;;;5.43;;
27740;SDS011;15134;48.768;9.184;2023-06-24T02:44:54;10.87;;;6.30;;
27740;SDS011;15134;48.768;9.184;2023-06-24T02:47:20;8.98;;;5.57;;
27740;SDS011;15134;48.768;9.184;2023-06-24T02:49:47;10.05;;;5.78;;
27740;SDS011;15134;48.768;9.184;2023-06-24T02:52:15;8.40;;;5.00;;
27740;SDS011;15134;48.768;9.184;2023-06-24T02:54:41;8.40;;;5.45;;
27740;SDS011;15134;48.768;9.184;2023-06-24T02:57:25;9.95;;;5.53;;
27740;SDS011;15134;48.768;9.184;2023-06-24T03:00:12;8.77;;;5.68;;
27740;SDS011;15134;48.768;9.184;2023-06-24T03:02:58;8.57;;;5.13;;
27740;SDS011;15134;48.768;9.184;2023-06-24T03:05:26;8.77;;;5.45;;
27740;SDS011;15134;48.768;9.184;2023-06-24T03:07:54;8.35;;;5.40;;
27740;SDS011;15134;48.768;9.184;2023-06-24T03:10:22;9.35;;;5.47;;
27740;SDS011;15134;48.768;9.184;2023-06-24T03:12:49;9.20;;;5.68;;
27740;SDS011;15134;48.768;9.184;2023-06-24T03:15:15;8.63;;;5.57;;
27740;SDS011;15134;48.768;9.184;2023-06-24T03:17:40;10.67;;;6.07;;
27740;SDS011;15134;48.768;9.184;2023-06-24T03:20:06;9.57;;;6.27;;
27740;SDS011;15134;48.768;9.184;2023-06-24T03:22:33;8.52;;;6.07;;
27740;SDS011;15134;48.768;9.184;2023-06-24T03:25:03;10.15;;;6.18;;
27740;SDS011;15134;48.768;9.184;2023-06-24T03:27:30;9.57;;;6.13;;
27740;SDS011;15134;48.768;9.184;2023-06-24T03:32:22;11.07;;;5.25;;
27740;SDS011;15134;48.768;9.184;2023-06-24T03:34:48;9.32;;;5.88;;
27740;SDS011;15134;48.768;9.184;2023-06-24T03:37:14;10.33;;;5.40;;
27740;SDS011;15134;48.768;9.184;2023-06-24T03:39:41;8.85;;;5.80;;
27740;SDS011;15134;48.768;9.184;2023-06-24T03:42:07;10.40;;;5.80;;
27740;SDS011;15134;48.768;9.184;2023-06-24T03:44:33;9.43;;;6.30;;
27740;SDS011;15134;48.768;9.184;2023-06-24T03:47:00;13.20;;;8.23;;
27740;SDS011;15134;48.768;9.184;2023-06-24T03:49:26;27.83;;;17.37;;
27740;SDS011;15134;48.768;9.184;2023-06-24T03:51:52;33.87;;;19.43;;
27740;SDS011;15134;48.768;9.184;2023-06-24T03:54:18;72.28;;;38.30;;
27740;SDS011;15134;48.768;9.184;2023-06-24T03:56:44;32.90;;;16.23;;
27740;SDS011;15134;48.768;9.184;2023-06-24T03:59:10;22.90;;;12.90;;
27740;SDS011;15134;48.768;9.184;2023-06-24T04:01:35;21.23;;;10.63;;
27740;SDS011;15134;48.768;9.184;2023-06-24T04:04:02;14.93;;;8.13;;
27740;SDS011;15134;48.768;9.184;2023-06-24T04:06:28;17.80;;;9.20;;
27740;SDS011;15134;48.768;9.184;2023-06-24T04:08:54;15.53;;;8.13;;
27740;SDS011;15134;48.768;9.184;2023-06-24T04:11:20;12.82;;;7.22;;
27740;SDS011;15134;48.768;9.184;2023-06-24T04:13:46;13.13;;;6.77;;
27740;SDS011;15134;48.768;9.184;2023-06-24T04:16:14;10.27;;;5.63;;
27740;SDS011;15134;48.768;9.184;2023-06-24T04:18:40;11.02;;;6.32;;
27740;SDS011;15134;48.768;9.184;2023-06-24T04:21:06;10.47;;;6.17;;
27740;SDS011;15134;48.768;9.184;2023-06-24T04:23:32;9.52;;;5.90;;
27740;SDS011;15134;48.768;9.184;2023-06-24T04:25:58;10.48;;;5.72;;
27740;SDS011;15134;48.768;9.184;2023-06-24T04:28:24;9.18;;;5.80;;
27740;SDS011;15134;48.768;9.184;2023-06-24T04:30:50;8.80;;;5.63;;
27740;SDS011;15134;48.768;9.184;2023-06-24T04:33:16;9.95;;;5.93;;
27740;SDS011;15134;48.768;9.184;2023-06-24T04:35:43;10.25;;;5.30;;
27740;SDS011;15134;48.768;9.184;2023-06-24T04:38:09;11.27;;;5.75;;
27740;SDS011;15134;48.768;9.184;2023-06-24T04:40:35;11.48;;;5.95;;
27740;SDS011;15134;48.768;9.184;2023-06-24T04:43:01;9.85;;;5.90;;
27740;SDS011;15134;48.768;9.184;2023-06-24T04:45:27;10.98;;;5.78;;
27740;SDS011;15134;48.768;9.184;2023-06-24T04:47:53;7.93;;;5.23;;
27740;SDS011;15134;48.768;9.184;2023-06-24T04:50:19;11.37;;;6.77;;
27740;SDS011;15134;48.768;9.184;2023-06-24T04:52:45;9.13;;;5.13;;
27740;SDS011;15134;48.768;9.184;2023-06-24T04:55:10;7.70;;;5.17;;
27740;SDS011;15134;48.768;9.184;2023-06-24T04:57:36;8.80;;;5.67;;
27740;SDS011;15134;48.768;9.184;2023-06-24T05:00:03;8.27;;;5.22;;
27740;SDS011;15134;48.768;9.184;2023-06-24T05:02:29;10.35;;;5.57;;
27740;SDS011;15134;48.768;9.184;2023-06-24T05:04:55;7.00;;;5.00;;
27740;SDS011;15134;48.768;9.184;2023-06-24T05:07:21;8.37;;;5.30;;
27740;SDS011;15134;48.768;9.184;2023-06-24T05:09:47;8.60;;;5.17;;
27740;SDS011;15134;48.768;9.184;2023-06-24T05:14:39;7.57;;;5.28;;
27740;SDS011;15134;48.768;9.184;2023-06-24T05:17:04;6.93;;;4.77;;
27740;SDS011;15134;48.768;9.184;2023-06-24T05:19:30;9.32;;;5.25;;
27740;SDS011;15134;48.768;9.184;2023-06-24T05:21:56;7.37;;;5.40;;
27740;SDS011;15134;48.768;9.184;2023-06-24T05:24:22;7.90;;;5.20;;
27740;SDS011;15134;48.768;9.184;2023-06-24T05:26:48;9.30;;;4.93;;
27740;SDS011;15134;48.768;9.184;2023-06-24T05:29:15;6.80;;;4.35;;
27740;SDS011;15134;48.768;9.184;2023-06-24T05:31:41;8.75;;;5.35;;
27740;SDS011;15134;48.768;9.184;2023-06-24T05:34:06;7.97;;;5.55;;
27740;SDS011;15134;48.768;9.184;2023-06-24T05:36:35;8.55;;;5.88;;
27740;SDS011;15134;48.768;9.184;2023-06-24T05:39:01;10.57;;;5.47;;
27740;SDS011;15134;48.768;9.184;2023-06-24T05:41:27;7.65;;;5.15;;
27740;SDS011;15134;48.768;9.184;2023-06-24T05:44:03;6.37;;;4.90;;
27740;SDS011;15134;48.768;9.184;2023-06-24T05:46:30;7.03;;;4.70;;
27740;SDS011;15134;48.768;9.184;2023-06-24T05:48:56;8.32;;;4.10;;
27740;SDS011;15134;48.768;9.184;2023-06-24T05:51:21;8.00;;;4.65;;
27740;SDS011;15134;48.768;9.184;2023-06-24T05:53:47;6.55;;;3.97;;
27740;SDS011;15134;48.768;9.184;2023-06-24T05:56:13;9.07;;;5.25;;
27740;SDS011;15134;48.768;9.184;2023-06-24T05:58:39;11.20;;;5.72;;
27740;SDS011;15134;48.768;9.184;2023-06-24T06:01:06;9.05;;;5.15;;
27740;SDS011;15134;48.768;9.184;2023-06-24T06:03:32;7.55;;;4.78;;
27740;SDS011;15134;48.768;9.184;2023-06-24T06:05:58;8.93;;;3.88;;
27740;SDS011;15134;48.768;9.184;2023-06-24T06:08:24;6.82;;;3.67;;
27740;SDS011;15134;48.768;9.184;2023-06-24T06:10:49;6.13;;;3.78;;
27740;SDS011;15134;48.768;9.184;2023-06-24T06:13:15;9.25;;;4.15;;
27740;SDS011;15134;48.768;9.184;2023-06-24T06:15:41;6.40;;;3.88;;
27740;SDS011;15134;48.768;9.184;2023-06-24T06:18:07;5.72;;;3.78;;
27740;SDS011;15134;48.768;9.184;2023-06-24T06:20:33;4.97;;;3.53;;
27740;SDS011;15134;48.768;9.184;2023-06-24T06:22:58;6.13;;;3.38;;
27740;SDS011;15134;48.768;9.184;2023-06-24T06:27:50;6.55;;;4.68;;
27740;SDS011;15134;48.768;9.184;2023-06-24T06:30:16;6.43;;;4.60;;
27740;SDS011;15134;48.768;9.184;2023-06-24T06:32:42;5.00;;;3.60;;
27740;SDS011;15134;48.768;9.184;2023-06-24T06:35:09;4.68;;;2.88;;
27740;SDS011;15134;48.768;9.184;2023-06-24T06:37:34;4.75;;;3.50;;
27740;SDS011;15134;48.768;9.184;2023-06-24T06:40:00;4.93;;;3.20;;
27740;SDS011;15134;48.768;9.184;2023-06-24T06:42:26;6.00;;;3.33;;
27740;SDS011;15134;48.768;9.184;2023-06-24T06:44:54;4.75;;;2.90;;
27740;SDS011;15134;48.768;9.184;2023-06-24T06:47:19;6.78;;;3.10;;
27740;SDS011;15134;48.768;9.184;2023-06-24T06:49:45;5.32;;;2.58;;
27740;SDS011;15134;48.768;9.184;2023-06-24T06:52:11;5.07;;;3.38;;
27740;SDS011;15134;48.768;9.184;2023-06-24T06:54:38;4.80;;;2.90;;
27740;SDS011;15134;48.768;9.184;2023-06-24T06:57:04;5.22;;;2.75;;
27740;SDS011;15134;48.768;9.184;2023-06-24T06:59:30;4.40;;;2.83;;
27740;SDS011;15134;48.768;9.184;2023-06-24T07:01:58;5.93;;;2.72;;
27740;SDS011;15134;48.768;9.184;2023-06-24T07:04:24;4.68;;;3.00;;
27740;SDS011;15134;48.768;9.184;2023-06-24T07:06:49;3.88;;;2.95;;
27740;SDS011;15134;48.768;9.184;2023-06-24T07:09:15;4.30;;;2.83;;
27740;SDS011;15134;48.768;9.184;2023-06-24T07:11:42;3.63;;;2.47;;
27740;SDS011;15134;48.768;9.184;2023-06-24T07:14:08;3.53;;;2.40;;
27740;SDS011;15134;48.768;9.184;2023-06-24T07:16:34;5.25;;;2.40;;
27740;SDS011;15134;48.768;9.184;2023-06-24T07:19:01;5.60;;;2.67;;
27740;SDS011;15134;48.768;9.184;2023-06-24T07:21:27;4.75;;;2.75;;
27740;SDS011;15134;48.768;9.184;2023-06-24T07:23:52;4.55;;;2.80;;
27740;SDS011;15134;48.768;9.184;2023-06-24T07:26:19;4.72;;;3.15;;
27740;SDS011;15134;48.768;9.184;2023-06-24T07:28:44;4.95;;;2.85;;
27740;SDS011;15134;48.768;9.184;2023-06-24T07:31:11;4.10;;;2.38;;
27740;SDS011;15134;48.768;9.184;2023-06-24T07:33:37;4.40;;;2.95;;
27740;SDS011;15134;48.768;9.184;2023-06-24T07:36:02;5.30;;;2.83;;
27740;SDS011;15134;48.768;9.184;2023-06-24T07:38:29;4.30;;;3.13;;
27740;SDS011;15134;48.768;9.184;2023-06-24T07:40:55;5.63;;;3.60;;
27740;SDS011;15134;48.768;9.184;2023-06-24T07:43:21;7.07;;;5.97;;
27740;SDS011;15134;48.768;9.184;2023-06-24T07:45:47;10.30;;;9.25;;
27740;SDS011;15134;48.768;9.184;2023-06-24T07:48:13;9.00;;;7.40;;
27740;SDS011;15134;48.768;9.184;2023-06-24T07:50:39;7.75;;;6.35;;
27740;SDS011;15134;48.768;9.184;2023-06-24T07:53:05;6.80;;;5.93;;
27740;SDS011;15134;48.768;9.184;2023-06-24T07:55:31;4.18;;;2.70;;
27740;SDS011;15134;48.768;9.184;2023-06-24T07:57:57;6.75;;;5.10;;
27740;SDS011;15134;48.768;9.184;2023-06-24T08:00:23;5.95;;;4.32;;
27740;SDS011;15134;48.768;9.184;2023-06-24T08:02:50;9.93;;;7.97;;
27740;SDS011;15134;48.768;9.184;2023-06-24T08:05:16;6.68;;;4.78;;
27740;SDS011;15134;48.768;9.184;2023-06-24T08:07:43;4.45;;;3.30;;
27740;SDS011;15134;48.768;9.184;2023-06-24T08:10:09;4.15;;;2.25;;
27740;SDS011;15134;48.768;9.184;2023-06-24T08:12:38;4.57;;;2.10;;
27740;SDS011;15134;48.768;9.184;2023-06-24T08:15:04;4.93;;;2.55;;
27740;SDS011;15134;48.768;9.184;2023-06-24T08:17:30;3.42;;;2.30;;
27740;SDS011;15134;48.768;9.184;2023-06-24T08:19:58;5.68;;;2.88;;
27740;SDS011;15134;48.768;9.184;2023-06-24T08:22:23;12.70;;;9.85;;
27740;SDS011;15134;48.768;9.184;2023-06-24T08:24:52;5.47;;;3.42;;
27740;SDS011;15134;48.768;9.184;2023-06-24T08:27:18;9.55;;;6.85;;
27740;SDS011;15134;48.768;9.184;2023-06-24T08:29:44;4.30;;;2.50;;
27740;SDS011;15134;48.768;9.184;2023-06-24T08:32:10;3.38;;;2.00;;
27740;SDS011;15134;48.768;9.184;2023-06-24T08:34:36;9.02;;;5.60;;
27740;SDS011;15134;48.768;9.184;2023-06-24T08:37:02;5.53;;;3.75;;
27740;SDS011;15134;48.768;9.184;2023-06-24T08:39:28;9.75;;;7.57;;
27740;SDS011;15134;48.768;9.184;2023-06-24T08:41:54;13.52;;;10.93;;
27740;SDS011;15134;48.768;9.184;2023-06-24T08:44:21;7.25;;;5.30;;
27740;SDS011;15134;48.768;9.184;2023-06-24T08:46:47;3.80;;;2.30;;
27740;SDS011;15134;48.768;9.184;2023-06-24T08:49:20;4.00;;;3.00;;
27740;SDS011;15134;48.768;9.184;2023-06-24T08:51:54;4.65;;;2.10;;
27740;SDS011;15134;48.768;9.184;2023-06-24T08:54:36;3.65;;;2.38;;
27740;SDS011;15134;48.768;9.184;2023-06-24T08:57:04;4.88;;;3.42;;
27740;SDS011;15134;48.768;9.184;2023-06-24T08:59:32;8.75;;;4.35;;
27740;SDS011;15134;48.768;9.184;2023-06-24T09:01:59;9.30;;;7.72;;
27740;SDS011;15134;48.768;9.184;2023-06-24T09:04:24;3.78;;;1.80;;
27740;SDS011;15134;48.768;9.184;2023-06-24T09:06:50;4.72;;;2.30;;
27740;SDS011;15134;48.768;9.184;2023-06-24T09:09:19;3.53;;;2.00;;
27740;SDS011;15134;48.768;9.184;2023-06-24T09:11:52;4.88;;;3.28;;
27740;SDS011;15134;48.768;9.184;2023-06-24T09:14:22;4.40;;;2.75;;
27740;SDS011;15134;48.768;9.184;2023-06-24T09:16:59;3.83;;;3.00;;
27740;SDS011;15134;48.768;9.184;2023-06-24T09:19:28;5.45;;;3.50;;
27740;SDS011;15134;48.768;9.184;2023-06-24T09:22:04;3.17;;;2.10;;
27740;SDS011;15134;48.768;9.184;2023-06-24T09:24:31;4.78;;;2.70;;
27740;SDS011;15134;48.768;9.184;2023-06-24T09:27:01;4.25;;;2.58;;
27740;SDS011;15134;48.768;9.184;2023-06-24T09:29:29;4.70;;;1.92;;
27740;SDS011;15134;48.768;9.184;2023-06-24T09:31:57;4.35;;;2.03;;
27740;SDS011;15134;48.768;9.184;2023-06-24T09:34:27;3.40;;;2.22;;
27740;SDS011;15134;48.768;9.184;2023-06-24T09:36:55;3.88;;;2.17;;
27740;SDS011;15134;48.768;9.184;2023-06-24T09:39:22;5.22;;;2.65;;
27740;SDS011;15134;48.768;9.184;2023-06-24T09:41:57;5.70;;;3.05;;
27740;SDS011;15134;48.768;9.184;2023-06-24T09:44:25;4.60;;;2.85;;
27740;SDS011;15134;48.768;9.184;2023-06-24T09:46:55;3.92;;;2.20;;
27740;SDS011;15134;48.768;9.184;2023-06-24T09:49:21;4.40;;;2.67;;
27740;SDS011;15134;48.768;9.184;2023-06-24T09:51:48;3.97;;;2.25;;
27740;SDS011;15134;48.768;9.184;2023-06-24T09:54:15;4.47;;;2.40;;
27740;SDS011;15134;48.768;9.184;2023-06-24T09:56:50;3.40;;;2.00;;
27740;SDS011;15134;48.768;9.184;2023-06-24T09:59:18;2.63;;;1.80;;
27740;SDS011;15134;48.768;9.184;2023-06-24T10:01:46;4.65;;;2.45;;
27740;SDS011;15134;48.768;9.184;2023-06-24T10:04:16;5.32;;;2.78;;
27740;SDS011;15134;48.768;9.184;2023-06-24T10:06:42;4.30;;;2.63;;
27740;SDS011;15134;48.768;9.184;2023-06-24T10:09:09;4.20;;;2.53;;
27740;SDS011;15134;48.768;9.184;2023-06-24T10:11:35;4.05;;;2.28;;
27740;SDS011;15134;48.768;9.184;2023-06-24T10:14:01;3.67;;;2.17;;
27740;SDS011;15134;48.768;9.184;2023-06-24T10:16:27;4.10;;;2.78;;
27740;SDS011;15134;48.768;9.184;2023-06-24T10:18:59;5.50;;;3.10;;
27740;SDS011;15134;48.768;9.184;2023-06-24T10:21:43;6.18;;;3.10;;
27740;SDS011;15134;48.768;9.184;2023-06-24T10:24:11;3.85;;;2.58;;
27740;SDS011;15134;48.768;9.184;2023-06-24T10:26:39;4.13;;;2.65;;
27740;SDS011;15134;48.768;9.184;2023-06-24T10:34:27;4.63;;;2.80;;
27740;SDS011;15134;48.768;9.184;2023-06-24T10:36:53;6.35;;;2.50;;
27740;SDS011;15134;48.768;9.184;2023-06-24T10:44:52;8.30;;;5.30;;
27740;SDS011;15134;48.768;9.184;2023-06-24T10:47:23;5.13;;;3.28;;
27740;SDS011;15134;48.768;9.184;2023-06-24T10:49:49;4.53;;;2.90;;
27740;SDS011;15134;48.768;9.184;2023-06-24T10:52:17;5.10;;;3.05;;
27740;SDS011;15134;48.768;9.184;2023-06-24T10:54:48;6.75;;;2.30;;
27740;SDS011;15134;48.768;9.184;2023-06-24T10:57:14;5.38;;;2.42;;
27740;SDS011;15134;48.768;9.184;2023-06-24T11:02:13;5.80;;;3.28;;
27740;SDS011;15134;48.768;9.184;2023-06-24T11:04:49;6.75;;;3.28;;
27740;SDS011;15134;48.768;9.184;2023-06-24T11:07:19;4.68;;;2.58;;
27740;SDS011;15134;48.768;9.184;2023-06-24T11:09:56;6.97;;;2.67;;
27740;SDS011;15134;48.768;9.184;2023-06-24T11:12:32;5.47;;;2.70;;
27740;SDS011;15134;48.768;9.184;2023-06-24T11:15:01;5.10;;;3.03;;
27740;SDS011;15134;48.768;9.184;2023-06-24T11:17:31;6.32;;;2.90;;
27740;SDS011;15134;48.768;9.184;2023-06-24T11:19:58;6.57;;;3.47;;
27740;SDS011;15134;48.768;9.184;2023-06-24T11:22:24;4.05;;;2.50;;
27740;SDS011;15134;48.768;9.184;2023-06-24T11:24:51;5.40;;;3.10;;
27740;SDS011;15134;48.768;9.184;2023-06-24T11:27:23;5.95;;;2.83;;
27740;SDS011;15134;48.768;9.184;2023-06-24T11:29:53;4.50;;;2.63;;
27740;SDS011;15134;48.768;9.184;2023-06-24T11:32:20;9.18;;;6.10;;
27740;SDS011;15134;48.768;9.184;2023-06-24T11:37:13;5.07;;;2.72;;
27740;SDS011;15134;48.768;9.184;2023-06-24T11:39:42;5.00;;;2.88;;
27740;SDS011;15134;48.768;9.184;2023-06-24T11:42:08;6.78;;;3.50;;
27740;SDS011;15134;48.768;9.184;2023-06-24T11:44:35;4.95;;;2.67;;
27740;SDS011;15134;48.768;9.184;2023-06-24T11:47:07;4.78;;;2.60;;
27740;SDS011;15134;48.768;9.184;2023-06-24T11:49:52;5.70;;;3.08;;
27740;SDS011;15134;48.768;9.184;2023-06-24T11:55:01;4.50;;;2.95;;
27740;SDS011;15134;48.768;9.184;2023-06-24T12:00:13;7.88;;;2.70;;
27740;SDS011;15134;48.768;9.184;2023-06-24T12:02:39;5.07;;;2.88;;
27740;SDS011;15134;48.768;9.184;2023-06-24T12:05:05;4.95;;;3.08;;
27740;SDS011;15134;48.768;9.184;2023-06-24T12:07:31;5.90;;;3.40;;
27740;SDS011;15134;48.768;9.184;2023-06-24T12:09:57;6.22;;;3.03;;
27740;SDS011;15134;48.768;9.184;2023-06-24T12:12:23;5.53;;;3.20;;
27740;SDS011;15134;48.768;9.184;2023-06-24T12:14:48;5.85;;;3.40;;
27740;SDS011;15134;48.768;9.184;2023-06-24T12:17:14;5.82;;;2.75;;
27740;SDS011;15134;48.768;9.184;2023-06-24T12:19:40;6.90;;;3.20;;
27740;SDS011;15134;48.768;9.184;2023-06-24T12:22:07;6.07;;;3.30;;
27740;SDS011;15134;48.768;9.184;2023-06-24T12:24:33;5.30;;;2.58;;
27740;SDS011;15134;48.768;9.184;2023-06-24T12:26:59;6.25;;;3.72;;
27740;SDS011;15134;48.768;9.184;2023-06-24T12:29:25;5.13;;;3.13;;
27740;SDS011;15134;48.768;9.184;2023-06-24T12:31:51;7.25;;;4.20;;
27740;SDS011;15134;48.768;9.184;2023-06-24T12:34:16;10.52;;;3.92;;
27740;SDS011;15134;48.768;9.184;2023-06-24T12:36:42;7.97;;;4.50;;
27740;SDS011;15134;48.768;9.184;2023-06-24T12:39:08;5.93;;;3.50;;
27740;SDS011;15134;48.768;9.184;2023-06-24T12:41:33;7.18;;;3.22;;
27740;SDS011;15134;48.768;9.184;2023-06-24T12:43:59;7.43;;;3.45;;
27740;SDS011;15134;48.768;9.184;2023-06-24T12:46:25;6.65;;;3.17;;
27740;SDS011;15134;48.768;9.184;2023-06-24T12:48:50;4.93;;;3.08;;
27740;SDS011;15134;48.768;9.184;2023-06-24T12:51:16;18.45;;;10.38;;
27740;SDS011;15134;48.768;9.184;2023-06-24T12:53:42;7.28;;;3.38;;
27740;SDS011;15134;48.768;9.184;2023-06-24T12:56:07;5.22;;;3.08;;
27740;SDS011;15134;48.768;9.184;2023-06-24T12:58:33;6.30;;;3.58;;
27740;SDS011;15134;48.768;9.184;2023-06-24T13:00:59;6.63;;;3.50;;
27740;SDS011;15134;48.768;9.184;2023-06-24T13:03:25;7.10;;;2.85;;
27740;SDS011;15134;48.768;9.184;2023-06-24T13:05:51;4.45;;;2.55;;
27740;SDS011;15134;48.768;9.184;2023-06-24T13:08:16;5.35;;;2.83;;
27740;SDS011;15134;48.768;9.184;2023-06-24T13:10:42;7.65;;;4.20;;
27740;SDS011;15134;48.768;9.184;2023-06-24T13:13:08;6.43;;;3.42;;
27740;SDS011;15134;48.768;9.184;2023-06-24T13:15:34;7.47;;;4.00;;
27740;SDS011;15134;48.768;9.184;2023-06-24T13:17:59;9.05;;;4.95;;
27740;SDS011;15134;48.768;9.184;2023-06-24T13:20:26;6.70;;;3.22;;
27740;SDS011;15134;48.768;9.184;2023-06-24T13:22:52;6.10;;;3.05;;
27740;SDS011;15134;48.768;9.184;2023-06-24T13:25:18;7.95;;;3.10;;
27740;SDS011;15134;48.768;9.184;2023-06-24T13:27:44;5.07;;;2.53;;
27740;SDS011;15134;48.768;9.184;2023-06-24T13:30:10;5.07;;;2.78;;
27740;SDS011;15134;48.768;9.184;2023-06-24T13:35:02;7.80;;;4.10;;
27740;SDS011;15134;48.768;9.184;2023-06-24T13:37:29;6.57;;;3.35;;
27740;SDS011;15134;48.768;9.184;2023-06-24T13:39:55;5.32;;;2.70;;
27740;SDS011;15134;48.768;9.184;2023-06-24T13:42:21;7.20;;;3.40;;
27740;SDS011;15134;48.768;9.184;2023-06-24T13:44:47;6.07;;;3.08;;
27740;SDS011;15134;48.768;9.184;2023-06-24T13:47:12;4.75;;;3.15;;
27740;SDS011;15134;48.768;9.184;2023-06-24T13:49:38;5.75;;;3.25;;
27740;SDS011;15134;48.768;9.184;2023-06-24T13:52:04;4.85;;;2.90;;
27740;SDS011;15134;48.768;9.184;2023-06-24T13:54:30;5.72;;;2.75;;
27740;SDS011;15134;48.768;9.184;2023-06-24T13:56:58;5.03;;;2.85;;
27740;SDS011;15134;48.768;9.184;2023-06-24T13:59:24;4.50;;;2.90;;
27740;SDS011;15134;48.768;9.184;2023-06-24T14:01:49;5.18;;;3.20;;
27740;SDS011;15134;48.768;9.184;2023-06-24T14:04:15;5.05;;;2.80;;
27740;SDS011;15134;48.768;9.184;2023-06-24T14:06:41;5.43;;;3.20;;
27740;SDS011;15134;48.768;9.184;2023-06-24T14:09:08;8.77;;;4.13;;
27740;SDS011;15134;48.768;9.184;2023-06-24T14:11:34;8.45;;;4.38;;
27740;SDS011;15134;48.768;9.184;2023-06-24T14:14:00;6.22;;;3.58;;
27740;SDS011;15134;48.768;9.184;2023-06-24T14:16:26;6.82;;;3.90;;
27740;SDS011;15134;48.768;9.184;2023-06-24T14:18:51;7.50;;;3.50;;
27740;SDS011;15134;48.768;9.184;2023-06-24T14:21:18;5.47;;;3.13;;
27740;SDS011;15134;48.768;9.184;2023-06-24T14:23:44;8.38;;;3.83;;
27740;SDS011;15134;48.768;9.184;2023-06-24T14:26:10;5.60;;;3.47;;
27740;SDS011;15134;48.768;9.184;2023-06-24T14:28:36;7.13;;;3.90;;
27740;SDS011;15134;48.768;9.184;2023-06-24T14:31:01;5.30;;;3.53;;
27740;SDS011;15134;48.768;9.184;2023-06-24T14:33:29;7.78;;;4.30;;
27740;SDS011;15134;48.768;9.184;2023-06-24T14:35:56;5.45;;;3.13;;
27740;SDS011;15134;48.768;9.184;2023-06-24T14:38:22;9.38;;;5.60;;
27740;SDS011;15134;48.768;9.184;2023-06-24T14:40:47;6.25;;;3.58;;
27740;SDS011;15134;48.768;9.184;2023-06-24T14:43:13;4.82;;;2.88;;
27740;SDS011;15134;48.768;9.184;2023-06-24T14:45:39;5.85;;;3.28;;
27740;SDS011;15134;48.768;9.184;2023-06-24T14:48:05;4.97;;;3.17;;
27740;SDS011;15134;48.768;9.184;2023-06-24T14:50:30;8.68;;;3.53;;
27740;SDS011;15134;48.768;9.184;2023-06-24T14:52:56;5.55;;;3.05;;
27740;SDS011;15134;48.768;9.184;2023-06-24T14:55:22;5.47;;;3.00;;
27740;SDS011;15134;48.768;9.184;2023-06-24T14:57:48;4.57;;;2.90;;
27740;SDS011;15134;48.768;9.184;2023-06-24T15:00:13;5.85;;;3.28;;
27740;SDS011;15134;48.768;9.184;2023-06-24T15:02:39;6.57;;;3.05;;
27740;SDS011;15134;48.768;9.184;2023-06-24T15:05:05;7.07;;;3.53;;
27740;SDS011;15134;48.768;9.184;2023-06-24T15:07:31;6.45;;;3.45;;
27740;SDS011;15134;48.768;9.184;2023-06-24T15:09:57;4.90;;;3.17;;
27740;SDS011;15134;48.768;9.184;2023-06-24T15:17:14;5.00;;;2.75;;
27740;SDS011;15134;48.768;9.184;2023-06-24T15:19:40;7.25;;;3.45;;
27740;SDS011;15134;48.768;9.184;2023-06-24T15:22:06;5.60;;;2.85;;
27740;SDS011;15134;48.768;9.184;2023-06-24T15:24:32;4.97;;;2.95;;
27740;SDS011;15134;48.768;9.184;2023-06-24T15:26:58;5.15;;;2.75;;
27740;SDS011;15134;48.768;9.184;2023-06-24T15:36:41;4.93;;;3.35;;
27740;SDS011;15134;48.768;9.184;2023-06-24T15:39:08;6.32;;;3.22;;
27740;SDS011;15134;48.768;9.184;2023-06-24T15:41:35;5.50;;;3.40;;